Time;durP1;ratioP1;P1;durP2;ratioP2;P2;SDS_P1;SDS_P2;PMS_P1;PMS_P2;Temp;Humidity;BMP_temperature;BMP_pressure;BME280_temperature;BME280_humidity;BME280_pressure;Samples;Min_cycle;Max_cycle;Signal;HPM_P1;HPM_P2
2023/07/21 00:02:08;;;;;;;5.53;5.00;;;;;;;;;;5036657;28;20497;-77
2023/07/21 00:04:36;;;;;;;4.97;4.53;;;;;;;;;;5036808;28;20504;-78
2023/07/21 00:07:03;;;;;;;7.33;4.63;;;;;;;;;;5036762;28;20512;-78
2023/07/21 00:09:30;;;;;;;5.20;4.70;;;;;;;;;;5036926;28;20819;-78
2023/07/21 00:11:59;;;;;;;4.73;4.00;;;;;;;;;;5036901;28;20547;-77
2023/07/21 00:14:28;;;;;;;7.60;4.67;;;;;;;;;;5036817;28;20453;-77
2023/07/21 00:16:55;;;;;;;13.37;4.70;;;;;;;;;;5036874;28;20460;-78
2023/07/21 00:19:22;;;;;;;5.63;4.30;;;;;;;;;;5037137;28;20461;-77
2023/07/21 00:21:51;;;;;;;5.13;4.63;;;;;;;;;;5036565;28;21101;-78
2023/07/21 00:24:20;;;;;;;6.57;4.20;;;;;;;;;;5036706;28;20512;-78
2023/07/21 00:26:47;;;;;;;10.27;4.80;;;;;;;;;;5037170;28;20508;-77
2023/07/21 00:29:16;;;;;;;6.70;5.00;;;;;;;;;;5036718;28;20457;-78
2023/07/21 00:31:46;;;;;;;7.30;4.43;;;;;;;;;;5036643;28;20470;-78
2023/07/21 00:34:13;;;;;;;12.10;7.30;;;;;;;;;;5036711;28;20469;-78
2023/07/21 00:36:41;;;;;;;5.90;4.50;;;;;;;;;;5036247;28;20537;-78
2023/07/21 00:39:09;;;;;;;6.47;4.77;;;;;;;;;;5036828;28;20457;-78
2023/07/21 00:41:36;;;;;;;8.10;4.60;;;;;;;;;;5036665;28;20509;-78
2023/07/21 00:44:06;;;;;;;7.40;4.93;;;;;;;;;;5036269;28;20488;-77
2023/07/21 00:46:35;;;;;;;7.30;4.30;;;;;;;;;;5036609;28;21064;-78
2023/07/21 00:49:02;;;;;;;6.10;5.00;;;;;;;;;;5036671;28;21033;-78
2023/07/21 00:51:29;;;;;;;5.30;4.80;;;;;;;;;;5036226;28;20480;-78
2023/07/21 00:53:57;;;;;;;6.57;5.40;;;;;;;;;;5036708;28;20968;-78
2023/07/21 00:56:25;;;;;;;6.20;5.00;;;;;;;;;;5035912;28;20461;-78
2023/07/21 00:58:52;;;;;;;6.47;4.83;;;;;;;;;;5036161;28;20453;-78
2023/07/21 01:01:19;;;;;;;6.20;4.90;;;;;;;;;;5036043;28;20485;-78
2023/07/21 01:03:47;;;;;;;5.80;4.47;;;;;;;;;;5036319;28;21013;-78
2023/07/21 01:06:15;;;;;;;6.97;4.80;;;;;;;;;;5035927;28;20449;-78
2023/07/21 01:08:42;;;;;;;6.43;4.90;;;;;;;;;;5036174;28;20446;-77
2023/07/21 01:11:10;;;;;;;8.80;5.40;;;;;;;;;;5035923;28;20478;-77
2023/07/21 01:13:40;;;;;;;5.73;4.73;;;;;;;;;;5035615;28;20509;-77
2023/07/21 01:16:08;;;;;;;5.10;4.60;;;;;;;;;;5036366;28;20457;-78
2023/07/21 01:18:35;;;;;;;5.50;4.60;;;;;;;;;;5035842;28;20461;-77
2023/07/21 01:21:05;;;;;;;7.00;4.60;;;;;;;;;;5035777;28;20469;-77
2023/07/21 01:23:36;;;;;;;5.63;4.80;;;;;;;;;;5035726;28;20493;-77
2023/07/21 01:26:05;;;;;;;4.77;4.20;;;;;;;;;;5035490;28;20446;-77
2023/07/21 01:28:32;;;;;;;8.10;5.10;;;;;;;;;;5035668;28;20809;-77
2023/07/21 01:31:00;;;;;;;8.50;5.50;;;;;;;;;;5035688;28;20920;-77
2023/07/21 01:33:28;;;;;;;5.93;5.20;;;;;;;;;;5035278;28;20450;-78
2023/07/21 01:35:56;;;;;;;12.70;5.53;;;;;;;;;;5035312;28;20871;-78
2023/07/21 01:38:24;;;;;;;6.80;4.70;;;;;;;;;;5035285;28;20454;-77
2023/07/21 01:40:51;;;;;;;5.90;5.40;;;;;;;;;;5035660;28;20601;-77
2023/07/21 01:43:23;;;;;;;7.50;5.07;;;;;;;;;;5035117;28;20465;-77
2023/07/21 01:45:50;;;;;;;6.77;4.90;;;;;;;;;;5035354;28;20972;-78
2023/07/21 01:48:17;;;;;;;6.33;5.73;;;;;;;;;;5035276;28;20965;-78
2023/07/21 01:50:45;;;;;;;7.53;6.10;;;;;;;;;;5035056;28;20461;-78
2023/07/21 01:53:14;;;;;;;7.13;5.27;;;;;;;;;;5035134;28;20450;-77
2023/07/21 01:55:44;;;;;;;8.33;5.90;;;;;;;;;;5035470;28;20445;-78
2023/07/21 01:58:13;;;;;;;7.37;5.23;;;;;;;;;;5034364;28;20461;-78
2023/07/21 02:00:42;;;;;;;8.03;5.57;;;;;;;;;;5034866;28;20496;-77
2023/07/21 02:03:10;;;;;;;5.10;4.70;;;;;;;;;;5034851;28;20456;-78
2023/07/21 02:05:37;;;;;;;9.40;5.73;;;;;;;;;;5035241;28;20490;-78
2023/07/21 02:08:05;;;;;;;6.70;5.93;;;;;;;;;;5034829;28;20794;-78
2023/07/21 02:10:32;;;;;;;6.17;5.53;;;;;;;;;;5034717;28;20454;-78
2023/07/21 02:12:59;;;;;;;5.93;5.27;;;;;;;;;;5035043;28;20457;-78
2023/07/21 02:15:26;;;;;;;5.90;5.30;;;;;;;;;;5034424;28;20504;-77
2023/07/21 02:17:55;;;;;;;7.03;5.30;;;;;;;;;;5035170;28;20819;-77
2023/07/21 02:20:22;;;;;;;6.10;5.00;;;;;;;;;;5034612;28;20453;-79
2023/07/21 02:22:49;;;;;;;9.23;5.30;;;;;;;;;;5035570;28;20460;-78
2023/07/21 02:25:17;;;;;;;7.03;5.77;;;;;;;;;;5035011;28;20489;-78
2023/07/21 02:27:44;;;;;;;5.80;4.80;;;;;;;;;;5035929;28;20485;-79
2023/07/21 02:30:12;;;;;;;6.37;4.73;;;;;;;;;;5036547;28;20446;-78
2023/07/21 02:32:39;;;;;;;6.00;5.40;;;;;;;;;;5036846;28;20468;-79
2023/07/21 02:35:08;;;;;;;5.87;5.27;;;;;;;;;;5037207;28;20836;-79
2023/07/21 02:37:36;;;;;;;7.83;5.80;;;;;;;;;;5035466;28;20519;-78
2023/07/21 02:40:06;;;;;;;6.80;5.77;;;;;;;;;;5036967;28;20449;-79
2023/07/21 02:42:34;;;;;;;8.20;6.20;;;;;;;;;;5036673;28;20568;-79
2023/07/21 02:45:02;;;;;;;8.70;6.87;;;;;;;;;;5035044;28;20520;-78
2023/07/21 02:47:29;;;;;;;6.80;5.73;;;;;;;;;;5036105;28;20940;-79
2023/07/21 02:49:56;;;;;;;10.87;6.53;;;;;;;;;;5036367;28;20460;-77
2023/07/21 02:52:27;;;;;;;11.43;6.67;;;;;;;;;;5037150;28;20473;-77
2023/07/21 02:54:54;;;;;;;8.70;6.03;;;;;;;;;;5037051;28;20533;-78
2023/07/21 02:57:21;;;;;;;9.17;6.00;;;;;;;;;;5035551;28;20464;-78
2023/07/21 02:59:48;;;;;;;6.83;5.67;;;;;;;;;;5036241;28;20982;-77
2023/07/21 03:02:17;;;;;;;7.23;6.53;;;;;;;;;;5036480;28;20561;-78
2023/07/21 03:04:45;;;;;;;7.27;5.37;;;;;;;;;;5036328;28;20477;-78
2023/07/21 03:07:12;;;;;;;14.40;6.13;;;;;;;;;;5036903;28;20552;-78
2023/07/21 03:09:40;;;;;;;6.50;5.40;;;;;;;;;;5037865;28;20453;-78
2023/07/21 03:12:08;;;;;;;7.13;5.27;;;;;;;;;;5040417;28;20477;-78
2023/07/21 03:14:35;;;;;;;10.33;5.77;;;;;;;;;;5039956;28;20450;-78
2023/07/21 03:17:03;;;;;;;7.30;5.30;;;;;;;;;;5040642;28;20468;-78
2023/07/21 03:19:30;;;;;;;5.77;5.17;;;;;;;;;;5039335;28;20487;-78
2023/07/21 03:21:58;;;;;;;6.10;5.47;;;;;;;;;;5040087;28;20849;-78
2023/07/21 03:24:25;;;;;;;5.70;5.17;;;;;;;;;;5039699;28;20508;-78
2023/07/21 03:26:53;;;;;;;6.73;5.10;;;;;;;;;;5039287;28;20528;-78
2023/07/21 03:29:20;;;;;;;7.47;4.93;;;;;;;;;;5039703;28;20460;-78
2023/07/21 03:31:48;;;;;;;6.40;5.40;;;;;;;;;;5039826;28;20556;-78
2023/07/21 03:34:15;;;;;;;8.80;5.87;;;;;;;;;;5039997;28;20515;-78
2023/07/21 03:36:42;;;;;;;7.77;5.30;;;;;;;;;;5040351;28;20461;-78
2023/07/21 03:39:09;;;;;;;5.80;5.20;;;;;;;;;;5039967;28;20528;-77
2023/07/21 03:41:36;;;;;;;7.40;6.33;;;;;;;;;;5039536;28;20480;-77
2023/07/21 03:44:05;;;;;;;10.20;6.03;;;;;;;;;;5039483;28;20485;-78
2023/07/21 03:46:32;;;;;;;5.90;5.30;;;;;;;;;;5038628;28;20449;-78
2023/07/21 03:48:59;;;;;;;6.80;5.20;;;;;;;;;;5039377;28;20556;-78
2023/07/21 03:51:27;;;;;;;12.00;5.97;;;;;;;;;;5037582;28;20487;-77
2023/07/21 03:53:58;;;;;;;11.17;7.60;;;;;;;;;;5037292;28;20541;-77
2023/07/21 03:56:25;;;;;;;10.33;6.80;;;;;;;;;;5036527;28;20922;-78
2023/07/21 03:58:54;;;;;;;7.80;6.27;;;;;;;;;;5039268;28;20460;-77
2023/07/21 04:01:22;;;;;;;6.80;6.10;;;;;;;;;;5038482;28;20481;-78
2023/07/21 04:03:49;;;;;;;11.40;5.90;;;;;;;;;;5038907;28;20540;-78
2023/07/21 04:06:18;;;;;;;8.53;5.83;;;;;;;;;;5037185;28;20566;-77
2023/07/21 04:08:45;;;;;;;7.23;6.00;;;;;;;;;;5038571;28;20489;-78
2023/07/21 04:11:12;;;;;;;5.90;5.30;;;;;;;;;;5038563;28;20477;-78
2023/07/21 04:13:39;;;;;;;6.87;5.70;;;;;;;;;;5039551;28;20948;-77
2023/07/21 04:16:06;;;;;;;4.90;4.40;;;;;;;;;;5039425;28;20443;-77
2023/07/21 04:18:36;;;;;;;5.70;5.20;;;;;;;;;;5038730;28;20449;-78
2023/07/21 04:21:03;;;;;;;5.77;5.27;;;;;;;;;;5036027;28;20474;-78
2023/07/21 04:23:30;;;;;;;10.10;5.70;;;;;;;;;;5037453;28;20946;-78
2023/07/21 04:25:57;;;;;;;5.70;5.00;;;;;;;;;;5036871;28;20490;-79
2023/07/21 04:28:24;;;;;;;15.40;6.40;;;;;;;;;;5037085;28;20812;-79
2023/07/21 04:30:54;;;;;;;12.30;5.87;;;;;;;;;;5037772;28;20912;-78
2023/07/21 04:33:21;;;;;;;6.30;4.93;;;;;;;;;;5037905;28;20504;-79
2023/07/21 04:35:51;;;;;;;6.37;5.37;;;;;;;;;;5038374;28;20452;-78
2023/07/21 04:38:18;;;;;;;8.53;6.20;;;;;;;;;;5037271;28;20947;-79
2023/07/21 04:40:45;;;;;;;10.50;7.67;;;;;;;;;;5036672;28;20485;-78
2023/07/21 04:43:13;;;;;;;6.60;5.60;;;;;;;;;;5037705;28;20861;-79
2023/07/21 04:45:42;;;;;;;6.87;5.17;;;;;;;;;;5038248;28;20494;-78
2023/07/21 04:48:09;;;;;;;10.70;4.97;;;;;;;;;;5037801;28;20477;-78
2023/07/21 04:50:37;;;;;;;6.07;5.10;;;;;;;;;;5036813;28;20492;-79
2023/07/21 04:53:06;;;;;;;9.33;6.10;;;;;;;;;;5036518;28;20484;-78
2023/07/21 04:55:33;;;;;;;7.93;5.57;;;;;;;;;;5035292;28;20468;-78
2023/07/21 04:58:01;;;;;;;6.83;5.20;;;;;;;;;;5035090;28;20923;-78
2023/07/21 05:00:28;;;;;;;5.17;4.67;;;;;;;;;;5035102;28;20969;-78
2023/07/21 05:02:55;;;;;;;6.70;4.60;;;;;;;;;;5035591;28;20465;-77
2023/07/21 05:05:22;;;;;;;6.87;5.20;;;;;;;;;;5035227;28;20579;-77
2023/07/21 05:07:50;;;;;;;7.70;5.20;;;;;;;;;;5035262;28;20452;-77
2023/07/21 05:10:18;;;;;;;7.00;5.60;;;;;;;;;;5034967;28;20473;-77
2023/07/21 05:12:45;;;;;;;7.37;5.20;;;;;;;;;;5035641;28;20449;-78
2023/07/21 05:15:13;;;;;;;5.27;4.20;;;;;;;;;;5036527;28;20450;-78
2023/07/21 05:17:40;;;;;;;6.50;4.17;;;;;;;;;;5035831;28;20454;-78
2023/07/21 05:20:11;;;;;;;5.27;4.13;;;;;;;;;;5036557;28;20457;-78
2023/07/21 05:22:38;;;;;;;9.17;4.63;;;;;;;;;;5035741;28;20458;-77
2023/07/21 05:25:05;;;;;;;5.07;4.57;;;;;;;;;;5035839;28;21009;-78
2023/07/21 05:27:34;;;;;;;6.20;5.17;;;;;;;;;;5035185;28;20464;-77
2023/07/21 05:30:01;;;;;;;4.70;4.20;;;;;;;;;;5035409;28;20565;-78
2023/07/21 05:32:28;;;;;;;6.37;5.10;;;;;;;;;;5035313;28;20838;-78
2023/07/21 05:34:55;;;;;;;6.60;4.70;;;;;;;;;;5036269;28;20452;-78
2023/07/21 05:37:22;;;;;;;10.83;6.27;;;;;;;;;;5035288;28;20458;-77
2023/07/21 05:39:49;;;;;;;8.13;4.90;;;;;;;;;;5035265;28;20814;-79
2023/07/21 05:42:17;;;;;;;11.03;4.80;;;;;;;;;;5035212;28;20477;-79
2023/07/21 05:44:48;;;;;;;7.30;5.30;;;;;;;;;;5035566;28;20457;-79
2023/07/21 05:47:15;;;;;;;7.47;5.60;;;;;;;;;;5034701;28;20442;-78
2023/07/21 05:49:43;;;;;;;8.87;5.50;;;;;;;;;;5035563;28;20552;-78
2023/07/21 05:52:10;;;;;;;9.30;5.27;;;;;;;;;;5035943;28;20477;-78
2023/07/21 05:54:37;;;;;;;9.80;6.00;;;;;;;;;;5036145;28;20847;-79
2023/07/21 05:57:05;;;;;;;10.43;6.60;;;;;;;;;;5035493;28;20516;-78
2023/07/21 05:59:32;;;;;;;7.00;4.60;;;;;;;;;;5035471;28;20469;-78
2023/07/21 06:02:01;;;;;;;7.40;5.33;;;;;;;;;;5035742;28;20996;-78
2023/07/21 06:04:28;;;;;;;8.27;5.70;;;;;;;;;;5035968;28;20457;-79
2023/07/21 06:06:56;;;;;;;9.17;6.50;;;;;;;;;;5035678;28;20482;-79
2023/07/21 06:09:23;;;;;;;10.60;6.67;;;;;;;;;;5035417;28;20832;-78
2023/07/21 06:11:50;;;;;;;12.50;6.10;;;;;;;;;;5036212;28;20566;-79
2023/07/21 06:14:18;;;;;;;8.80;6.00;;;;;;;;;;5036507;28;20523;-79
2023/07/21 06:16:45;;;;;;;8.10;5.63;;;;;;;;;;5035994;28;20434;-78
2023/07/21 06:19:13;;;;;;;9.10;5.30;;;;;;;;;;5036056;28;20442;-79
2023/07/21 06:21:41;;;;;;;18.53;5.57;;;;;;;;;;5036428;28;20457;-78
2023/07/21 06:24:08;;;;;;;7.27;6.20;;;;;;;;;;5035625;28;20797;-78
2023/07/21 06:26:35;;;;;;;5.97;5.27;;;;;;;;;;5034989;28;20559;-79
2023/07/21 06:29:03;;;;;;;9.50;6.20;;;;;;;;;;5034626;28;20518;-78
2023/07/21 06:31:30;;;;;;;7.90;5.07;;;;;;;;;;5034932;28;21036;-79
2023/07/21 06:33:58;;;;;;;12.70;5.23;;;;;;;;;;5034259;28;20454;-78
2023/07/21 06:36:26;;;;;;;16.73;6.43;;;;;;;;;;5034402;28;20461;-78
2023/07/21 06:38:53;;;;;;;6.00;5.23;;;;;;;;;;5034833;28;20537;-78
2023/07/21 06:41:21;;;;;;;11.10;5.97;;;;;;;;;;5034674;28;20576;-78
2023/07/21 06:43:48;;;;;;;8.53;6.03;;;;;;;;;;5033351;28;20520;-78
2023/07/21 06:46:15;;;;;;;11.90;7.13;;;;;;;;;;5033384;28;20498;-78
2023/07/21 06:48:42;;;;;;;9.87;6.20;;;;;;;;;;5033839;28;20555;-77
2023/07/21 06:51:09;;;;;;;9.27;6.00;;;;;;;;;;5033553;28;20477;-77
2023/07/21 06:53:38;;;;;;;6.90;5.30;;;;;;;;;;5034050;28;20446;-78
2023/07/21 06:56:05;;;;;;;6.47;5.60;;;;;;;;;;5033399;28;20450;-78
2023/07/21 06:58:32;;;;;;;6.83;4.80;;;;;;;;;;5033815;28;20493;-77
2023/07/21 07:01:00;;;;;;;5.60;4.87;;;;;;;;;;5034041;28;21043;-78
2023/07/21 07:03:29;;;;;;;5.80;4.50;;;;;;;;;;5033900;28;20450;-78
2023/07/21 07:05:57;;;;;;;9.80;5.30;;;;;;;;;;5034257;28;20989;-76
2023/07/21 07:08:24;;;;;;;5.83;4.70;;;;;;;;;;5032311;28;20454;-76
2023/07/21 07:10:52;;;;;;;7.03;4.73;;;;;;;;;;5032672;28;20978;-76
2023/07/21 07:13:19;;;;;;;5.27;4.77;;;;;;;;;;5032619;28;20941;-76
2023/07/21 07:15:49;;;;;;;5.70;4.13;;;;;;;;;;5032552;28;20438;-77
2023/07/21 07:18:16;;;;;;;13.30;4.17;;;;;;;;;;5033020;28;20456;-76
2023/07/21 07:20:48;;;;;;;5.50;4.33;;;;;;;;;;5032286;28;20474;-77
2023/07/21 07:23:16;;;;;;;6.80;4.10;;;;;;;;;;5032795;28;20846;-77
2023/07/21 07:25:46;;;;;;;4.30;3.33;;;;;;;;;;5032347;28;20489;-77
2023/07/21 07:28:15;;;;;;;4.80;3.83;;;;;;;;;;5032907;28;20429;-77
2023/07/21 07:30:42;;;;;;;11.37;4.37;;;;;;;;;;5032839;28;20478;-77
2023/07/21 07:33:09;;;;;;;5.60;3.87;;;;;;;;;;5032817;28;20951;-79
2023/07/21 07:35:36;;;;;;;4.80;3.43;;;;;;;;;;5034383;28;20486;-80
2023/07/21 07:38:04;;;;;;;9.33;4.10;;;;;;;;;;5033704;28;20905;-80
2023/07/21 07:40:31;;;;;;;4.53;4.07;;;;;;;;;;5034374;28;20453;-80
2023/07/21 07:42:58;;;;;;;5.27;3.30;;;;;;;;;;5033479;28;20450;-80
2023/07/21 07:45:26;;;;;;;3.70;3.40;;;;;;;;;;5033855;28;20450;-79
2023/07/21 07:47:54;;;;;;;4.23;3.60;;;;;;;;;;5033880;28;20829;-80
2023/07/21 07:50:22;;;;;;;4.33;3.43;;;;;;;;;;5033662;28;20449;-79
2023/07/21 07:52:49;;;;;;;4.10;2.80;;;;;;;;;;5034158;28;20480;-80
2023/07/21 07:55:17;;;;;;;6.13;3.70;;;;;;;;;;5035262;28;20537;-80
2023/07/21 07:57:45;;;;;;;5.70;2.93;;;;;;;;;;5038908;28;20469;-80
2023/07/21 08:00:14;;;;;;;4.47;3.77;;;;;;;;;;5038069;28;20475;-80
2023/07/21 08:02:42;;;;;;;5.10;3.23;;;;;;;;;;5038179;28;20458;-79
2023/07/21 08:05:10;;;;;;;3.73;3.43;;;;;;;;;;5037926;28;20528;-80
2023/07/21 08:07:37;;;;;;;3.80;3.40;;;;;;;;;;5036898;28;20569;-79
2023/07/21 08:10:05;;;;;;;3.90;3.50;;;;;;;;;;5037063;28;20457;-80
2023/07/21 08:12:33;;;;;;;5.70;3.93;;;;;;;;;;5037074;28;20882;-80
2023/07/21 08:15:00;;;;;;;10.40;3.17;;;;;;;;;;5037900;28;20446;-80
2023/07/21 08:17:27;;;;;;;10.33;3.70;;;;;;;;;;5038065;28;20454;-79
2023/07/21 08:19:55;;;;;;;5.90;3.50;;;;;;;;;;5038222;28;20840;-79
2023/07/21 08:22:22;;;;;;;6.30;3.37;;;;;;;;;;5037234;28;20474;-79
2023/07/21 08:24:50;;;;;;;6.00;3.07;;;;;;;;;;5038071;28;20454;-80
2023/07/21 08:27:17;;;;;;;4.47;3.60;;;;;;;;;;5038825;28;20485;-79
2023/07/21 08:29:44;;;;;;;4.47;2.87;;;;;;;;;;5037266;28;20445;-79
2023/07/21 08:32:11;;;;;;;4.70;3.60;;;;;;;;;;5038238;28;20833;-79
2023/07/21 08:34:38;;;;;;;2.80;2.60;;;;;;;;;;5037395;28;20990;-79
2023/07/21 08:37:07;;;;;;;4.00;2.73;;;;;;;;;;5038390;28;20458;-79
2023/07/21 08:39:34;;;;;;;3.80;2.83;;;;;;;;;;5037779;28;20454;-79
2023/07/21 08:42:01;;;;;;;4.93;3.37;;;;;;;;;;5038001;28;20505;-79
2023/07/21 08:44:30;;;;;;;4.07;3.13;;;;;;;;;;5038685;28;20454;-79
2023/07/21 08:46:57;;;;;;;4.33;3.80;;;;;;;;;;5037838;28;20528;-79
2023/07/21 08:49:24;;;;;;;4.10;2.97;;;;;;;;;;5038230;28;20838;-79
2023/07/21 08:51:51;;;;;;;3.13;2.63;;;;;;;;;;5038128;28;20994;-79
2023/07/21 08:54:20;;;;;;;4.30;3.03;;;;;;;;;;5037553;28;20537;-79
2023/07/21 08:56:47;;;;;;;3.27;2.97;;;;;;;;;;5037377;28;20450;-79
2023/07/21 08:59:14;;;;;;;3.10;2.80;;;;;;;;;;5037543;28;20452;-79
2023/07/21 09:01:41;;;;;;;3.50;3.20;;;;;;;;;;5038208;28;20472;-79
2023/07/21 09:04:18;;;;;;;4.67;3.60;;;;;;;;;;5038021;28;20822;-79
2023/07/21 09:06:49;;;;;;;5.23;3.80;;;;;;;;;;5036317;28;20478;-78
2023/07/21 09:09:18;;;;;;;5.90;4.43;;;;;;;;;;5038044;28;20486;-80
2023/07/21 09:11:47;;;;;;;5.00;3.90;;;;;;;;;;5037000;28;20485;-80
2023/07/21 09:14:14;;;;;;;4.57;3.60;;;;;;;;;;5037481;28;20453;-80
2023/07/21 09:16:41;;;;;;;4.43;3.93;;;;;;;;;;5036861;28;20505;-79
2023/07/21 09:19:08;;;;;;;5.17;3.20;;;;;;;;;;5037253;28;20457;-79
2023/07/21 09:21:36;;;;;;;5.77;3.77;;;;;;;;;;5038795;28;20485;-80
2023/07/21 09:24:04;;;;;;;4.43;3.73;;;;;;;;;;5037497;28;20965;-80
2023/07/21 09:26:31;;;;;;;7.43;3.73;;;;;;;;;;5036655;28;20486;-80
2023/07/21 09:29:00;;;;;;;4.30;3.90;;;;;;;;;;5037251;28;20879;-79
2023/07/21 09:31:28;;;;;;;4.70;4.07;;;;;;;;;;5037047;28;20470;-79
2023/07/21 09:33:55;;;;;;;4.77;4.27;;;;;;;;;;5037490;28;20785;-80
2023/07/21 09:36:23;;;;;;;7.93;4.90;;;;;;;;;;5037342;28;20488;-78
2023/07/21 09:38:50;;;;;;;6.67;5.30;;;;;;;;;;5037377;28;20574;-79
2023/07/21 09:41:21;;;;;;;5.90;4.20;;;;;;;;;;5035861;28;20848;-79
2023/07/21 09:43:48;;;;;;;6.77;4.47;;;;;;;;;;5035436;28;20419;-79
2023/07/21 09:46:17;;;;;;;4.80;3.80;;;;;;;;;;5037265;28;20584;-79
2023/07/21 09:48:44;;;;;;;9.07;4.97;;;;;;;;;;5036349;28;20472;-77
2023/07/21 09:51:12;;;;;;;5.37;3.83;;;;;;;;;;5034337;28;20480;-77
2023/07/21 09:53:40;;;;;;;4.30;3.90;;;;;;;;;;5033908;28;20533;-77
2023/07/21 09:56:07;;;;;;;9.83;4.77;;;;;;;;;;5033835;28;20465;-77
2023/07/21 09:58:36;;;;;;;4.73;4.30;;;;;;;;;;5034005;28;20474;-77
2023/07/21 10:01:04;;;;;;;6.20;3.90;;;;;;;;;;5033943;28;20491;-77
2023/07/21 10:03:32;;;;;;;4.40;4.00;;;;;;;;;;5034200;28;20462;-77
2023/07/21 10:06:00;;;;;;;6.07;4.43;;;;;;;;;;5033866;28;20972;-76
2023/07/21 10:08:28;;;;;;;4.47;4.00;;;;;;;;;;5034111;28;20545;-77
2023/07/21 10:10:57;;;;;;;4.13;3.73;;;;;;;;;;5034261;28;20474;-77
2023/07/21 10:13:25;;;;;;;3.90;3.20;;;;;;;;;;5033869;28;20446;-77
2023/07/21 10:15:53;;;;;;;3.90;3.30;;;;;;;;;;5034034;28;20460;-77
2023/07/21 10:18:20;;;;;;;4.47;2.97;;;;;;;;;;5033210;28;20452;-78
2023/07/21 10:20:50;;;;;;;4.93;3.37;;;;;;;;;;5033163;28;20481;-77
2023/07/21 10:23:18;;;;;;;4.00;3.20;;;;;;;;;;5033295;28;20857;-78
2023/07/21 10:25:48;;;;;;;5.13;4.37;;;;;;;;;;5033395;28;20453;-78
2023/07/21 10:28:16;;;;;;;6.40;4.53;;;;;;;;;;5033102;28;20502;-78
2023/07/21 10:30:43;;;;;;;4.30;3.90;;;;;;;;;;5032960;28;20556;-76
2023/07/21 10:33:14;;;;;;;6.17;4.00;;;;;;;;;;5032683;28;20512;-76
2023/07/21 10:35:41;;;;;;;3.90;3.33;;;;;;;;;;5030640;28;20463;-75
2023/07/21 10:38:24;;;;;;;5.93;3.93;;;;;;;;;;5030521;28;20462;-76
2023/07/21 10:40:51;;;;;;;4.00;3.30;;;;;;;;;;5031071;28;20569;-76
2023/07/21 10:43:19;;;;;;;11.50;6.80;;;;;;;;;;5031109;28;20460;-76
2023/07/21 10:45:53;;;;;;;5.20;4.47;;;;;;;;;;5031684;28;20449;-76
2023/07/21 10:48:21;;;;;;;3.90;3.40;;;;;;;;;;5031756;28;20941;-76
2023/07/21 10:50:51;;;;;;;7.53;4.97;;;;;;;;;;5032486;28;20489;-76
2023/07/21 10:53:19;;;;;;;8.20;5.70;;;;;;;;;;5032595;28;20454;-76
2023/07/21 10:55:47;;;;;;;4.23;3.13;;;;;;;;;;5032283;28;20461;-76
2023/07/21 10:58:15;;;;;;;5.30;3.17;;;;;;;;;;5032471;28;20541;-76
2023/07/21 11:00:49;;;;;;;5.83;4.10;;;;;;;;;;5032496;28;20994;-76
2023/07/21 11:03:16;;;;;;;4.50;4.10;;;;;;;;;;5032096;28;20473;-76
2023/07/21 11:05:44;;;;;;;4.03;3.23;;;;;;;;;;5032371;28;20984;-76
2023/07/21 11:08:14;;;;;;;4.50;3.90;;;;;;;;;;5032187;28;20539;-76
2023/07/21 11:10:41;;;;;;;4.60;3.37;;;;;;;;;;5032399;28;21016;-76
2023/07/21 11:13:10;;;;;;;4.17;3.30;;;;;;;;;;5032008;28;20513;-76
2023/07/21 11:15:37;;;;;;;5.50;2.80;;;;;;;;;;5032499;28;20907;-76
2023/07/21 11:18:04;;;;;;;3.40;2.90;;;;;;;;;;5032278;28;20792;-76
2023/07/21 11:20:32;;;;;;;3.10;2.50;;;;;;;;;;5032321;28;20456;-76
2023/07/21 11:22:59;;;;;;;4.13;3.23;;;;;;;;;;5032209;28;20560;-76
2023/07/21 11:25:26;;;;;;;3.97;3.67;;;;;;;;;;5032356;28;20809;-76
2023/07/21 11:27:54;;;;;;;5.10;2.60;;;;;;;;;;5031996;28;20492;-75
2023/07/21 11:30:23;;;;;;;3.07;2.70;;;;;;;;;;5032482;28;20461;-76
2023/07/21 11:33:08;;;;;;;3.37;3.07;;;;;;;;;;5036247;28;20900;-76
2023/07/21 11:35:35;;;;;;;4.93;2.83;;;;;;;;;;5036521;28;20467;-76
2023/07/21 11:38:02;;;;;;;4.73;3.43;;;;;;;;;;5036143;28;20537;-76
2023/07/21 11:40:34;;;;;;;3.53;3.23;;;;;;;;;;5035976;28;20456;-76
2023/07/21 11:43:07;;;;;;;3.87;3.53;;;;;;;;;;5035879;28;20452;-76
2023/07/21 11:45:39;;;;;;;3.70;2.87;;;;;;;;;;5035769;28;20530;-76
2023/07/21 11:48:17;;;;;;;3.90;3.00;;;;;;;;;;5035659;28;20480;-76
2023/07/21 11:50:49;;;;;;;3.10;2.80;;;;;;;;;;5036139;28;20923;-76
2023/07/21 11:53:16;;;;;;;3.10;2.73;;;;;;;;;;5036220;28;20906;-76
2023/07/21 11:55:45;;;;;;;2.83;2.40;;;;;;;;;;5035658;28;20453;-76
2023/07/21 11:58:12;;;;;;;4.47;3.33;;;;;;;;;;5035655;28;20460;-76
2023/07/21 12:00:42;;;;;;;3.10;2.67;;;;;;;;;;5035593;28;20904;-76
2023/07/21 12:03:10;;;;;;;4.67;2.57;;;;;;;;;;5035933;28;20950;-76
2023/07/21 12:05:38;;;;;;;4.27;2.83;;;;;;;;;;5035584;28;20640;-76
2023/07/21 12:08:06;;;;;;;3.70;2.83;;;;;;;;;;5035460;28;20516;-76
2023/07/21 12:10:33;;;;;;;2.77;2.40;;;;;;;;;;5035248;28;20457;-76
2023/07/21 12:13:03;;;;;;;4.63;3.47;;;;;;;;;;5035036;28;20457;-76
2023/07/21 12:15:31;;;;;;;3.70;2.70;;;;;;;;;;5035197;28;20495;-76
2023/07/21 12:18:00;;;;;;;3.40;3.10;;;;;;;;;;5035223;28;20888;-76
2023/07/21 12:20:27;;;;;;;2.63;2.40;;;;;;;;;;5035325;28;20464;-76
2023/07/21 12:22:54;;;;;;;3.50;3.20;;;;;;;;;;5035171;28;20454;-76
2023/07/21 12:25:21;;;;;;;2.90;2.53;;;;;;;;;;5035159;28;20828;-76
2023/07/21 12:27:49;;;;;;;3.07;2.70;;;;;;;;;;5034558;28;20579;-76
2023/07/21 12:30:16;;;;;;;4.40;2.80;;;;;;;;;;5034792;28;20462;-76
2023/07/21 12:32:43;;;;;;;4.30;3.03;;;;;;;;;;5034777;28;20454;-76
2023/07/21 12:35:12;;;;;;;3.47;2.73;;;;;;;;;;5034683;28;20557;-76
2023/07/21 12:37:39;;;;;;;3.00;2.40;;;;;;;;;;5034560;28;20490;-76
2023/07/21 12:40:11;;;;;;;3.30;2.80;;;;;;;;;;5034805;28;20636;-76
2023/07/21 12:42:39;;;;;;;3.87;2.73;;;;;;;;;;5034536;28;20446;-76
2023/07/21 12:45:07;;;;;;;3.93;2.93;;;;;;;;;;5034526;28;20462;-76
2023/07/21 12:47:34;;;;;;;3.43;2.87;;;;;;;;;;5034715;28;20489;-76
2023/07/21 12:50:01;;;;;;;3.47;2.87;;;;;;;;;;5034628;28;20824;-76
2023/07/21 12:52:30;;;;;;;3.57;2.93;;;;;;;;;;5034675;28;20887;-76
2023/07/21 12:54:57;;;;;;;3.70;2.43;;;;;;;;;;5034330;28;20461;-76
2023/07/21 12:57:24;;;;;;;4.03;3.20;;;;;;;;;;5034163;28;20449;-76
2023/07/21 12:59:51;;;;;;;2.63;2.43;;;;;;;;;;5034339;28;20470;-76
2023/07/21 13:02:18;;;;;;;2.60;2.30;;;;;;;;;;5034220;28;20470;-76
2023/07/21 13:04:46;;;;;;;3.20;2.90;;;;;;;;;;5034470;28;20470;-76
2023/07/21 13:07:13;;;;;;;3.33;2.30;;;;;;;;;;5033935;28;20498;-76
2023/07/21 13:09:42;;;;;;;4.30;2.80;;;;;;;;;;5034012;28;20450;-76
2023/07/21 13:12:09;;;;;;;3.10;2.60;;;;;;;;;;5034309;28;20990;-76
2023/07/21 13:14:37;;;;;;;2.80;2.20;;;;;;;;;;5034190;28;20822;-76
2023/07/21 13:17:04;;;;;;;4.50;2.90;;;;;;;;;;5034193;28;20441;-76
2023/07/21 13:19:32;;;;;;;3.70;2.20;;;;;;;;;;5033829;28;20471;-76
2023/07/21 13:22:01;;;;;;;4.80;2.63;;;;;;;;;;5034077;28;20570;-76
2023/07/21 13:24:28;;;;;;;5.27;2.77;;;;;;;;;;5034120;28;20553;-76
2023/07/21 13:26:57;;;;;;;2.80;2.37;;;;;;;;;;5034077;28;20482;-76
2023/07/21 13:29:25;;;;;;;3.40;2.37;;;;;;;;;;5034036;28;20926;-76
2023/07/21 13:31:52;;;;;;;3.47;2.53;;;;;;;;;;5033832;28;20525;-76
2023/07/21 13:34:19;;;;;;;3.27;2.70;;;;;;;;;;5033599;28;20468;-76
2023/07/21 13:36:46;;;;;;;4.73;2.77;;;;;;;;;;5033435;28;20464;-75
2023/07/21 13:39:13;;;;;;;4.40;3.47;;;;;;;;;;5033516;28;20449;-76
2023/07/21 13:41:40;;;;;;;2.70;2.50;;;;;;;;;;5033725;28;20840;-76
2023/07/21 13:44:09;;;;;;;2.90;2.60;;;;;;;;;;5033414;28;20557;-76
2023/07/21 13:46:37;;;;;;;4.57;2.30;;;;;;;;;;5033502;28;20476;-76
2023/07/21 13:49:04;;;;;;;3.13;2.30;;;;;;;;;;5033387;28;20496;-76
2023/07/21 13:51:31;;;;;;;3.27;2.40;;;;;;;;;;5033409;28;20473;-76
2023/07/21 13:53:58;;;;;;;2.80;2.23;;;;;;;;;;5032910;28;20458;-76
2023/07/21 13:56:25;;;;;;;5.03;3.17;;;;;;;;;;5033449;28;20460;-76
2023/07/21 13:58:52;;;;;;;3.70;3.07;;;;;;;;;;5033515;28;20923;-76
2023/07/21 14:01:21;;;;;;;4.27;2.07;;;;;;;;;;5033095;28;20534;-76
2023/07/21 14:03:48;;;;;;;4.10;2.30;;;;;;;;;;5033182;28;20547;-76
2023/07/21 14:06:16;;;;;;;2.70;2.13;;;;;;;;;;5033231;28;20461;-76
2023/07/21 14:08:43;;;;;;;2.93;2.40;;;;;;;;;;5032859;28;20584;-76
2023/07/21 14:11:11;;;;;;;2.87;2.33;;;;;;;;;;5032964;28;20470;-76
2023/07/21 14:13:38;;;;;;;6.07;5.00;;;;;;;;;;5032778;28;20820;-76
2023/07/21 14:16:05;;;;;;;5.13;2.50;;;;;;;;;;5033096;28;20745;-76
2023/07/21 14:18:34;;;;;;;2.33;2.00;;;;;;;;;;5033281;28;20746;-76
2023/07/21 14:21:01;;;;;;;3.50;3.20;;;;;;;;;;5032816;28;20505;-76
2023/07/21 14:23:28;;;;;;;3.10;2.33;;;;;;;;;;5032904;28;20450;-76
2023/07/21 14:25:55;;;;;;;3.63;2.63;;;;;;;;;;5032947;28;20905;-76
2023/07/21 14:28:22;;;;;;;3.23;2.30;;;;;;;;;;5032574;28;20497;-76
2023/07/21 14:30:49;;;;;;;3.33;2.50;;;;;;;;;;5032806;28;20476;-76
2023/07/21 14:33:17;;;;;;;4.70;2.23;;;;;;;;;;5032543;28;20442;-76
2023/07/21 14:35:45;;;;;;;2.90;2.57;;;;;;;;;;5032792;28;20456;-76
2023/07/21 14:38:15;;;;;;;2.73;2.33;;;;;;;;;;5032554;28;20540;-76
2023/07/21 14:40:42;;;;;;;3.07;2.40;;;;;;;;;;5032543;28;20473;-76
2023/07/21 14:43:09;;;;;;;2.50;2.30;;;;;;;;;;5032507;28;20835;-76
2023/07/21 14:45:36;;;;;;;4.17;3.50;;;;;;;;;;5032364;28;20464;-76